Time;durP1;ratioP1;P1;durP2;ratioP2;P2;SDS_P1;SDS_P2;PMS_P1;PMS_P2;Temp;Humidity;BMP_temperature;BMP_pressure;BME280_temperature;BME280_humidity;BME280_pressure;Samples;Min_cycle;Max_cycle;Signal;HPM_P1;HPM_P2
2023/03/18 00:00:26;;;;;;;38.73;23.40;;;;;;;;;;763914;184;640383;-82
2023/03/18 00:02:51;;;;;;;37.40;22.80;;;;;;;;;;756546;184;640720;-80
2023/03/18 00:05:18;;;;;;;42.87;23.00;;;;;;;;;;764371;184;632049;-81
2023/03/18 00:07:44;;;;;;;38.87;22.90;;;;;;;;;;760603;184;662456;-81
2023/03/18 00:10:10;;;;;;;31.30;20.77;;;;;;;;;;761374;184;626251;-81
2023/03/18 00:12:37;;;;;;;32.20;20.53;;;;;;;;;;758509;184;651620;-82
2023/03/18 00:15:01;;;;;;;33.80;20.80;;;;;;;;;;759829;184;629709;-80
2023/03/18 00:17:27;;;;;;;29.80;20.03;;;;;;;;;;766614;184;624203;-82
2023/03/18 00:19:53;;;;;;;28.07;18.77;;;;;;;;;;757190;184;629117;-81
2023/03/18 00:22:19;;;;;;;35.40;19.53;;;;;;;;;;760193;184;634725;-80
2023/03/18 00:24:45;;;;;;;28.23;17.50;;;;;;;;;;769321;182;653628;-80
2023/03/18 00:27:10;;;;;;;27.93;17.97;;;;;;;;;;767020;183;629332;-83
2023/03/18 00:29:36;;;;;;;25.70;16.17;;;;;;;;;;767719;183;635432;-81
2023/03/18 00:32:03;;;;;;;28.52;16.55;;;;;;;;;;767693;184;627784;-80
2023/03/18 00:34:29;;;;;;;30.23;16.77;;;;;;;;;;764678;184;627638;-82
2023/03/18 00:36:55;;;;;;;27.20;16.57;;;;;;;;;;753608;183;630179;-82
2023/03/18 00:39:25;;;;;;;31.20;19.20;;;;;;;;;;766603;183;624466;-80
2023/03/18 00:41:47;;;;;;;31.57;18.70;;;;;;;;;;761134;184;650621;-81
2023/03/18 00:44:13;;;;;;;32.87;18.87;;;;;;;;;;755774;184;627492;-81
2023/03/18 00:46:38;;;;;;;22.33;15.50;;;;;;;;;;749750;184;626334;-81
2023/03/18 00:49:04;;;;;;;24.67;15.20;;;;;;;;;;761780;183;645607;-80
2023/03/18 00:51:30;;;;;;;27.17;17.10;;;;;;;;;;763676;184;655318;-80
2023/03/18 00:53:55;;;;;;;22.97;15.30;;;;;;;;;;763825;184;624856;-81
2023/03/18 00:56:21;;;;;;;31.53;19.30;;;;;;;;;;759908;184;626766;-82
2023/03/18 00:58:47;;;;;;;27.17;16.80;;;;;;;;;;760607;184;639835;-81
2023/03/18 01:01:13;;;;;;;27.30;17.80;;;;;;;;;;754077;182;650978;-81
2023/03/18 01:03:41;;;;;;;25.27;16.83;;;;;;;;;;761441;184;621065;-81
2023/03/18 01:06:05;;;;;;;39.23;17.00;;;;;;;;;;762477;184;634337;-80
2023/03/18 01:08:31;;;;;;;26.03;16.63;;;;;;;;;;760798;184;631131;-80
2023/03/18 01:10:57;;;;;;;29.50;18.40;;;;;;;;;;762455;184;640375;-80
2023/03/18 01:13:24;;;;;;;31.67;19.73;;;;;;;;;;762806;184;642019;-80
2023/03/18 01:15:48;;;;;;;23.90;17.20;;;;;;;;;;763515;184;642653;-79
2023/03/18 01:18:15;;;;;;;24.43;15.63;;;;;;;;;;760889;184;635767;-82
2023/03/18 01:20:40;;;;;;;30.77;18.10;;;;;;;;;;768061;184;636189;-80
2023/03/18 01:23:07;;;;;;;24.87;16.50;;;;;;;;;;765421;184;631033;-79
2023/03/18 01:25:32;;;;;;;21.53;15.20;;;;;;;;;;759891;184;634202;-80
2023/03/18 01:27:58;;;;;;;25.37;15.53;;;;;;;;;;757017;184;627828;-81
2023/03/18 01:30:24;;;;;;;23.67;15.97;;;;;;;;;;761290;184;636494;-81
2023/03/18 01:32:49;;;;;;;25.37;13.53;;;;;;;;;;757724;184;629491;-80
2023/03/18 01:35:16;;;;;;;28.87;17.27;;;;;;;;;;759416;183;635962;-82
2023/03/18 01:37:42;;;;;;;24.70;16.00;;;;;;;;;;768883;183;624112;-81
2023/03/18 01:40:07;;;;;;;25.03;15.43;;;;;;;;;;764861;183;629115;-79
2023/03/18 01:42:33;;;;;;;25.03;16.00;;;;;;;;;;759082;184;627766;-82
2023/03/18 01:45:05;;;;;;;25.23;14.97;;;;;;;;;;760572;184;646565;-81
2023/03/18 01:47:31;;;;;;;25.90;15.03;;;;;;;;;;766874;183;679018;-80
2023/03/18 01:49:56;;;;;;;27.77;16.63;;;;;;;;;;761112;184;654537;-81
2023/03/18 01:52:22;;;;;;;24.50;15.50;;;;;;;;;;756984;184;643815;-80
2023/03/18 01:54:48;;;;;;;25.80;15.73;;;;;;;;;;763931;183;617886;-80
2023/03/18 01:57:16;;;;;;;27.97;15.73;;;;;;;;;;764635;183;640491;-80
2023/03/18 01:59:40;;;;;;;27.00;16.47;;;;;;;;;;763207;184;625094;-80
2023/03/18 02:02:06;;;;;;;34.33;19.03;;;;;;;;;;765859;184;638682;-80
2023/03/18 02:04:32;;;;;;;24.07;15.63;;;;;;;;;;762762;184;624622;-79
2023/03/18 02:06:57;;;;;;;28.40;16.90;;;;;;;;;;753786;185;630226;-81
2023/03/18 02:09:23;;;;;;;28.40;17.17;;;;;;;;;;762466;184;627628;-78
2023/03/18 02:11:49;;;;;;;32.13;18.10;;;;;;;;;;768645;184;616238;-81
2023/03/18 02:14:15;;;;;;;29.67;18.20;;;;;;;;;;763303;184;637375;-82
2023/03/18 02:16:43;;;;;;;31.83;19.60;;;;;;;;;;762675;184;628038;-82
2023/03/18 02:19:09;;;;;;;30.40;17.60;;;;;;;;;;764942;184;620860;-80
2023/03/18 02:21:35;;;;;;;27.67;16.93;;;;;;;;;;757769;184;628626;-79
2023/03/18 02:24:01;;;;;;;29.60;20.53;;;;;;;;;;759326;184;614612;-80
2023/03/18 02:26:34;;;;;;;30.45;19.33;;;;;;;;;;762891;184;625724;-80
2023/03/18 02:29:03;;;;;;;27.77;18.23;;;;;;;;;;761959;185;621526;-79
2023/03/18 02:31:26;;;;;;;27.17;18.70;;;;;;;;;;752869;183;622826;-80
2023/03/18 02:33:52;;;;;;;30.70;17.33;;;;;;;;;;760134;183;629789;-80
2023/03/18 02:36:18;;;;;;;34.47;19.50;;;;;;;;;;765283;184;622594;-81
2023/03/18 02:38:44;;;;;;;33.50;19.67;;;;;;;;;;757714;183;620181;-79
2023/03/18 02:41:12;;;;;;;48.00;20.57;;;;;;;;;;762497;184;632859;-80
2023/03/18 02:43:38;;;;;;;32.77;19.00;;;;;;;;;;763474;184;660372;-80
2023/03/18 02:46:05;;;;;;;32.53;19.13;;;;;;;;;;768126;184;644611;-80
2023/03/18 02:48:31;;;;;;;30.40;18.20;;;;;;;;;;759662;183;634676;-79
2023/03/18 02:50:57;;;;;;;27.47;16.33;;;;;;;;;;758907;184;625120;-81
2023/03/18 02:53:22;;;;;;;30.60;17.97;;;;;;;;;;766376;183;628246;-80
2023/03/18 02:55:48;;;;;;;26.47;14.50;;;;;;;;;;758619;184;653317;-82
2023/03/18 02:58:14;;;;;;;24.20;15.10;;;;;;;;;;760132;184;628396;-80
2023/03/18 03:00:40;;;;;;;22.97;14.80;;;;;;;;;;768707;184;665111;-79
2023/03/18 03:03:06;;;;;;;20.77;12.90;;;;;;;;;;758188;184;668619;-80
2023/03/18 03:05:32;;;;;;;19.93;11.57;;;;;;;;;;755449;184;624280;-81
2023/03/18 03:07:58;;;;;;;19.23;12.07;;;;;;;;;;761845;184;627613;-79
2023/03/18 03:10:23;;;;;;;26.50;13.40;;;;;;;;;;768050;184;623544;-80
2023/03/18 03:12:50;;;;;;;25.30;11.80;;;;;;;;;;764644;184;645280;-81
2023/03/18 03:15:15;;;;;;;14.37;10.83;;;;;;;;;;766078;184;624875;-79
2023/03/18 03:17:41;;;;;;;20.50;10.93;;;;;;;;;;760139;184;628908;-80
2023/03/18 03:20:07;;;;;;;18.97;12.40;;;;;;;;;;762118;184;633034;-79
2023/03/18 03:22:34;;;;;;;19.90;11.87;;;;;;;;;;764985;184;619506;-80
2023/03/18 03:25:00;;;;;;;19.53;11.30;;;;;;;;;;765498;184;644743;-79
2023/03/18 03:27:26;;;;;;;17.03;11.17;;;;;;;;;;764946;184;634336;-80
2023/03/18 03:29:51;;;;;;;17.93;10.57;;;;;;;;;;761590;182;626488;-80
2023/03/18 03:32:17;;;;;;;18.23;10.80;;;;;;;;;;763796;184;782573;-79
2023/03/18 03:34:43;;;;;;;23.87;11.73;;;;;;;;;;761359;184;633279;-81
2023/03/18 03:37:09;;;;;;;23.53;12.93;;;;;;;;;;766925;184;644157;-80
2023/03/18 03:39:34;;;;;;;19.90;10.77;;;;;;;;;;753263;184;621862;-80
2023/03/18 03:42:00;;;;;;;12.87;10.33;;;;;;;;;;766820;184;653166;-79
2023/03/18 03:44:26;;;;;;;16.40;10.10;;;;;;;;;;759272;184;633369;-79
2023/03/18 03:46:52;;;;;;;16.47;10.30;;;;;;;;;;761816;184;635815;-80
2023/03/18 03:49:18;;;;;;;18.43;9.97;;;;;;;;;;768509;184;624437;-81
2023/03/18 03:51:44;;;;;;;13.10;9.17;;;;;;;;;;758038;183;651413;-80
2023/03/18 03:54:09;;;;;;;13.17;8.00;;;;;;;;;;751371;184;623225;-80
2023/03/18 03:56:35;;;;;;;15.80;9.00;;;;;;;;;;761478;184;629390;-81
2023/03/18 03:59:03;;;;;;;13.20;9.50;;;;;;;;;;762004;184;626021;-79
2023/03/18 04:01:27;;;;;;;13.97;10.00;;;;;;;;;;763198;183;656210;-79
2023/03/18 04:03:53;;;;;;;13.53;9.10;;;;;;;;;;764865;183;617224;-79
2023/03/18 04:06:19;;;;;;;14.13;9.47;;;;;;;;;;762690;184;619093;-81
2023/03/18 04:08:45;;;;;;;34.97;10.80;;;;;;;;;;764500;184;666748;-79
2023/03/18 04:11:11;;;;;;;13.27;8.30;;;;;;;;;;757442;184;630559;-79
2023/03/18 04:13:36;;;;;;;15.70;8.57;;;;;;;;;;767886;184;628562;-79
2023/03/18 04:16:02;;;;;;;13.60;9.63;;;;;;;;;;758762;184;624808;-80
2023/03/18 04:18:28;;;;;;;15.20;8.83;;;;;;;;;;764950;184;625270;-79
2023/03/18 04:20:54;;;;;;;11.20;8.33;;;;;;;;;;762291;184;618707;-80
2023/03/18 04:23:20;;;;;;;12.73;9.13;;;;;;;;;;765315;183;666071;-79
2023/03/18 04:25:46;;;;;;;11.70;8.60;;;;;;;;;;760101;184;639825;-80
2023/03/18 04:28:12;;;;;;;14.13;9.20;;;;;;;;;;751782;186;621630;-79
2023/03/18 04:30:37;;;;;;;17.10;8.83;;;;;;;;;;766294;184;639770;-79
2023/03/18 04:33:03;;;;;;;14.20;9.47;;;;;;;;;;762717;184;634937;-80
2023/03/18 04:35:29;;;;;;;13.37;9.00;;;;;;;;;;761672;184;628767;-80
2023/03/18 04:37:55;;;;;;;16.60;9.90;;;;;;;;;;769374;184;625924;-79
2023/03/18 04:40:21;;;;;;;21.57;8.90;;;;;;;;;;765820;184;635452;-80
2023/03/18 04:42:46;;;;;;;14.27;9.23;;;;;;;;;;756900;184;638814;-80
2023/03/18 04:45:12;;;;;;;18.17;11.23;;;;;;;;;;758577;184;639414;-81
2023/03/18 04:47:38;;;;;;;15.63;8.77;;;;;;;;;;765316;182;637419;-80
2023/03/18 04:50:04;;;;;;;23.50;11.40;;;;;;;;;;759644;184;666898;-80
2023/03/18 04:52:30;;;;;;;24.30;14.10;;;;;;;;;;756002;184;636527;-79
2023/03/18 04:54:56;;;;;;;24.73;13.67;;;;;;;;;;763253;183;632146;-79
2023/03/18 04:57:22;;;;;;;22.40;12.30;;;;;;;;;;763185;183;627467;-79
2023/03/18 04:59:48;;;;;;;21.23;10.67;;;;;;;;;;760344;184;630782;-81
2023/03/18 05:02:14;;;;;;;15.90;10.03;;;;;;;;;;766340;184;630004;-80
2023/03/18 05:04:39;;;;;;;20.70;11.10;;;;;;;;;;765127;184;627250;-81
2023/03/18 05:07:06;;;;;;;15.23;9.93;;;;;;;;;;759653;184;632968;-78
2023/03/18 05:09:31;;;;;;;16.40;9.90;;;;;;;;;;758170;184;620412;-79
2023/03/18 05:11:57;;;;;;;24.23;13.00;;;;;;;;;;761533;183;616725;-78
2023/03/18 05:14:24;;;;;;;13.00;7.83;;;;;;;;;;765515;183;630117;-79
2023/03/18 05:16:49;;;;;;;16.47;11.73;;;;;;;;;;762595;183;634092;-80
2023/03/18 05:19:16;;;;;;;16.93;7.53;;;;;;;;;;769084;183;623514;-80
2023/03/18 05:21:41;;;;;;;19.70;9.20;;;;;;;;;;762298;184;636378;-79
2023/03/18 05:24:07;;;;;;;11.07;7.60;;;;;;;;;;763461;184;630171;-79
2023/03/18 05:26:33;;;;;;;12.90;8.07;;;;;;;;;;767542;184;633602;-80
2023/03/18 05:28:59;;;;;;;12.43;7.40;;;;;;;;;;761790;184;628571;-79
2023/03/18 05:31:24;;;;;;;16.90;9.20;;;;;;;;;;753412;184;636573;-80
2023/03/18 05:33:51;;;;;;;13.93;7.87;;;;;;;;;;760587;184;631124;-80
2023/03/18 05:36:17;;;;;;;10.47;7.73;;;;;;;;;;765674;185;624493;-80
2023/03/18 05:38:42;;;;;;;14.27;8.07;;;;;;;;;;752354;184;632411;-78
2023/03/18 05:41:08;;;;;;;12.23;7.80;;;;;;;;;;765798;184;622197;-81
2023/03/18 05:43:34;;;;;;;10.70;7.40;;;;;;;;;;771044;184;644301;-80
2023/03/18 05:46:00;;;;;;;12.13;7.30;;;;;;;;;;754622;184;2084935;-78
2023/03/18 05:48:26;;;;;;;11.03;7.23;;;;;;;;;;760140;184;636357;-77
2023/03/18 05:50:52;;;;;;;11.23;7.33;;;;;;;;;;764858;184;684638;-80
2023/03/18 05:53:17;;;;;;;8.40;7.03;;;;;;;;;;754624;184;1525070;-80
2023/03/18 05:55:43;;;;;;;11.40;6.90;;;;;;;;;;764688;184;658703;-81
2023/03/18 05:58:09;;;;;;;10.50;6.67;;;;;;;;;;764978;184;633282;-79
2023/03/18 06:00:36;;;;;;;15.93;6.97;;;;;;;;;;756180;184;621965;-79
2023/03/18 06:03:01;;;;;;;10.73;6.70;;;;;;;;;;760108;184;634979;-80
2023/03/18 06:05:27;;;;;;;7.30;5.63;;;;;;;;;;761589;184;637813;-81
2023/03/18 06:07:53;;;;;;;10.50;6.73;;;;;;;;;;762072;184;629016;-80
2023/03/18 06:10:19;;;;;;;12.13;7.23;;;;;;;;;;758475;183;638000;-79
2023/03/18 06:12:45;;;;;;;9.50;6.20;;;;;;;;;;762020;184;627263;-78
2023/03/18 06:15:11;;;;;;;6.87;5.20;;;;;;;;;;767021;184;655627;-77
2023/03/18 06:17:37;;;;;;;12.57;6.17;;;;;;;;;;762644;184;626539;-78
2023/03/18 06:20:03;;;;;;;10.33;6.13;;;;;;;;;;759473;184;645959;-78
2023/03/18 06:22:30;;;;;;;12.20;5.73;;;;;;;;;;765992;182;629312;-78
2023/03/18 06:24:55;;;;;;;9.13;6.70;;;;;;;;;;765695;183;653116;-77
2023/03/18 06:27:21;;;;;;;8.40;5.07;;;;;;;;;;761931;183;638761;-79
2023/03/18 06:29:46;;;;;;;12.40;6.37;;;;;;;;;;761787;183;635873;-78
2023/03/18 06:32:12;;;;;;;10.63;5.10;;;;;;;;;;764753;183;621081;-78
2023/03/18 06:34:38;;;;;;;9.83;4.80;;;;;;;;;;761516;184;649978;-78
2023/03/18 06:37:04;;;;;;;6.57;5.00;;;;;;;;;;761472;183;639902;-78
2023/03/18 06:39:30;;;;;;;12.67;6.27;;;;;;;;;;767162;184;624919;-78
2023/03/18 06:41:56;;;;;;;7.80;5.13;;;;;;;;;;761340;184;631068;-78
2023/03/18 06:44:21;;;;;;;10.10;6.03;;;;;;;;;;760940;184;628550;-79
2023/03/18 06:46:47;;;;;;;13.30;5.63;;;;;;;;;;762408;184;659147;-78
2023/03/18 06:49:14;;;;;;;11.17;5.13;;;;;;;;;;761726;184;653059;-79
2023/03/18 06:51:39;;;;;;;7.33;4.80;;;;;;;;;;761249;183;638085;-79
2023/03/18 06:54:06;;;;;;;9.70;5.60;;;;;;;;;;757461;184;648172;-80
2023/03/18 06:56:33;;;;;;;8.90;6.60;;;;;;;;;;764270;184;650680;-79
2023/03/18 06:58:57;;;;;;;11.10;5.30;;;;;;;;;;762657;184;624868;-79
2023/03/18 07:01:23;;;;;;;9.63;5.90;;;;;;;;;;761307;184;624762;-78
2023/03/18 07:03:49;;;;;;;10.40;5.03;;;;;;;;;;764996;182;657935;-79
2023/03/18 07:06:15;;;;;;;12.80;5.47;;;;;;;;;;761089;184;637902;-79
2023/03/18 07:08:40;;;;;;;9.73;5.93;;;;;;;;;;758582;184;639455;-80
2023/03/18 07:11:06;;;;;;;11.73;6.70;;;;;;;;;;763496;184;830850;-79
2023/03/18 07:13:33;;;;;;;10.80;7.13;;;;;;;;;;760465;184;638349;-78
2023/03/18 07:15:59;;;;;;;9.50;6.70;;;;;;;;;;761144;184;633237;-79
2023/03/18 07:18:24;;;;;;;8.47;4.97;;;;;;;;;;761500;184;637595;-80
2023/03/18 07:20:49;;;;;;;8.33;4.90;;;;;;;;;;767853;184;745892;-80
2023/03/18 07:23:16;;;;;;;7.60;4.60;;;;;;;;;;763017;184;666287;-79
2023/03/18 07:25:43;;;;;;;11.80;5.00;;;;;;;;;;759949;184;646676;-80
2023/03/18 07:28:08;;;;;;;7.40;5.20;;;;;;;;;;763254;184;640979;-80
2023/03/18 07:30:33;;;;;;;8.97;5.47;;;;;;;;;;762225;184;642560;-80
2023/03/18 07:32:59;;;;;;;12.37;5.87;;;;;;;;;;765375;183;636785;-79
2023/03/18 07:35:25;;;;;;;8.50;5.47;;;;;;;;;;764548;183;659834;-79
2023/03/18 07:37:51;;;;;;;11.27;5.23;;;;;;;;;;760642;183;645558;-79
2023/03/18 07:40:17;;;;;;;5.43;4.47;;;;;;;;;;761765;183;635618;-79
2023/03/18 07:42:42;;;;;;;9.33;4.23;;;;;;;;;;763433;183;658813;-79
2023/03/18 07:45:09;;;;;;;8.13;5.47;;;;;;;;;;763534;183;633945;-80
2023/03/18 07:47:35;;;;;;;10.93;5.80;;;;;;;;;;762799;184;640032;-79
2023/03/18 07:50:01;;;;;;;8.10;4.33;;;;;;;;;;762042;183;624265;-79
2023/03/18 07:52:26;;;;;;;8.20;5.00;;;;;;;;;;765733;184;664335;-80
2023/03/18 07:54:52;;;;;;;7.37;4.13;;;;;;;;;;763225;183;627759;-78
2023/03/18 07:57:18;;;;;;;6.60;3.30;;;;;;;;;;760861;184;680279;-79
2023/03/18 07:59:44;;;;;;;10.57;4.60;;;;;;;;;;761994;184;627614;-79
2023/03/18 08:02:10;;;;;;;6.90;3.90;;;;;;;;;;758656;184;639203;-79
2023/03/18 08:04:36;;;;;;;9.13;4.37;;;;;;;;;;759433;184;709164;-78
2023/03/18 08:07:04;;;;;;;8.00;4.33;;;;;;;;;;761618;184;655837;-78
2023/03/18 08:09:31;;;;;;;10.30;4.63;;;;;;;;;;761615;184;634180;-78
2023/03/18 08:11:56;;;;;;;9.93;4.00;;;;;;;;;;760299;184;659028;-78
2023/03/18 08:14:22;;;;;;;7.00;4.50;;;;;;;;;;760095;184;644851;-78
2023/03/18 08:16:48;;;;;;;7.70;4.73;;;;;;;;;;765415;184;639381;-79
2023/03/18 08:19:13;;;;;;;8.90;3.90;;;;;;;;;;765442;184;633423;-81
2023/03/18 08:21:39;;;;;;;6.50;3.80;;;;;;;;;;761888;184;646661;-79
2023/03/18 08:24:05;;;;;;;7.60;3.90;;;;;;;;;;768475;184;629411;-79
2023/03/18 08:26:31;;;;;;;9.77;4.25;;;;;;;;;;760079;184;820003;-81
2023/03/18 08:28:58;;;;;;;6.23;3.10;;;;;;;;;;754097;184;1323376;-79
2023/03/18 08:31:23;;;;;;;7.30;3.80;;;;;;;;;;758419;184;713321;-79
2023/03/18 08:33:52;;;;;;;9.10;4.03;;;;;;;;;;763867;184;618976;-78
2023/03/18 08:36:15;;;;;;;8.47;4.90;;;;;;;;;;760163;184;635433;-79
2023/03/18 08:38:41;;;;;;;13.33;5.00;;;;;;;;;;760957;184;630223;-77
2023/03/18 08:41:08;;;;;;;6.63;3.70;;;;;;;;;;765940;184;631094;-78
2023/03/18 08:43:32;;;;;;;11.80;5.70;;;;;;;;;;765314;184;636052;-79
2023/03/18 08:45:58;;;;;;;11.43;5.47;;;;;;;;;;762797;183;641542;-79
2023/03/18 08:48:24;;;;;;;9.10;4.30;;;;;;;;;;766596;183;644666;-78
2023/03/18 08:50:51;;;;;;;8.70;4.57;;;;;;;;;;761557;183;687050;-78
2023/03/18 08:53:16;;;;;;;8.53;4.67;;;;;;;;;;763929;183;634272;-79
2023/03/18 08:55:42;;;;;;;8.40;4.43;;;;;;;;;;764740;184;623570;-78
2023/03/18 08:58:08;;;;;;;9.10;3.53;;;;;;;;;;764868;184;642693;-78
2023/03/18 09:00:34;;;;;;;9.63;4.33;;;;;;;;;;761834;184;634786;-77
2023/03/18 09:03:00;;;;;;;7.77;4.10;;;;;;;;;;760397;184;645491;-78
2023/03/18 09:05:26;;;;;;;7.13;3.63;;;;;;;;;;765582;183;617848;-77
2023/03/18 09:07:52;;;;;;;7.40;4.50;;;;;;;;;;764027;183;635999;-79
2023/03/18 09:10:18;;;;;;;8.47;4.47;;;;;;;;;;758390;184;633353;-79
2023/03/18 09:12:43;;;;;;;7.77;3.87;;;;;;;;;;764329;184;631431;-76
2023/03/18 09:15:10;;;;;;;7.63;4.20;;;;;;;;;;761522;184;632588;-77
2023/03/18 09:17:39;;;;;;;8.10;3.77;;;;;;;;;;761016;181;626562;-77
2023/03/18 09:20:02;;;;;;;6.63;3.60;;;;;;;;;;762658;183;621726;-78
2023/03/18 09:22:28;;;;;;;6.20;3.47;;;;;;;;;;762393;184;703074;-78
2023/03/18 09:24:54;;;;;;;6.60;3.70;;;;;;;;;;757289;184;677694;-77
2023/03/18 09:27:20;;;;;;;7.90;4.83;;;;;;;;;;757574;184;634765;-79
2023/03/18 09:29:45;;;;;;;6.97;4.20;;;;;;;;;;765180;184;642330;-77
2023/03/18 09:32:12;;;;;;;6.30;3.40;;;;;;;;;;760924;184;627899;-78
2023/03/18 09:34:37;;;;;;;7.40;3.10;;;;;;;;;;760996;184;641155;-77
2023/03/18 09:37:03;;;;;;;5.67;2.93;;;;;;;;;;765091;183;628668;-77
2023/03/18 09:39:29;;;;;;;5.23;3.20;;;;;;;;;;759587;184;654437;-78
2023/03/18 09:41:59;;;;;;;6.27;3.80;;;;;;;;;;756734;183;638881;-77
2023/03/18 09:44:25;;;;;;;8.20;3.93;;;;;;;;;;756571;184;680499;-81
2023/03/18 09:46:56;;;;;;;6.77;4.20;;;;;;;;;;762110;184;639497;-79
2023/03/18 09:49:38;;;;;;;6.50;4.10;;;;;;;;;;762562;182;632631;-78
2023/03/18 09:52:06;;;;;;;5.47;2.87;;;;;;;;;;765166;181;629811;-78
2023/03/18 09:54:33;;;;;;;5.87;3.20;;;;;;;;;;759088;184;628533;-78
2023/03/18 09:56:58;;;;;;;8.20;4.50;;;;;;;;;;765284;181;633587;-80
2023/03/18 09:59:25;;;;;;;6.87;3.80;;;;;;;;;;768964;183;690582;-79
2023/03/18 10:01:50;;;;;;;4.30;3.00;;;;;;;;;;762440;183;629165;-78
2023/03/18 10:04:17;;;;;;;5.90;3.43;;;;;;;;;;761681;183;648721;-80
2023/03/18 10:06:43;;;;;;;4.87;3.13;;;;;;;;;;764665;184;627473;-79
2023/03/18 10:09:10;;;;;;;4.83;2.80;;;;;;;;;;759818;184;636345;-79
2023/03/18 10:11:38;;;;;;;5.10;3.00;;;;;;;;;;761942;184;661065;-79
2023/03/18 10:14:08;;;;;;;6.30;3.03;;;;;;;;;;761110;183;648126;-77
2023/03/18 10:16:34;;;;;;;8.90;3.10;;;;;;;;;;769065;180;635548;-79
2023/03/18 10:19:00;;;;;;;4.40;2.60;;;;;;;;;;763450;184;628621;-80
2023/03/18 10:21:35;;;;;;;7.57;3.37;;;;;;;;;;761449;183;752315;-80
2023/03/18 10:24:21;;;;;;;3.53;2.40;;;;;;;;;;760418;184;643045;-80
2023/03/18 10:26:49;;;;;;;5.33;3.60;;;;;;;;;;760892;184;660761;-77
2023/03/18 10:29:20;;;;;;;4.83;3.00;;;;;;;;;;765355;184;632462;-78
2023/03/18 10:31:44;;;;;;;7.13;3.10;;;;;;;;;;757527;184;633587;-78
2023/03/18 10:34:12;;;;;;;8.43;3.43;;;;;;;;;;757639;184;642919;-78
2023/03/18 10:36:38;;;;;;;3.50;2.27;;;;;;;;;;759402;184;677254;-77
2023/03/18 10:39:04;;;;;;;6.03;3.00;;;;;;;;;;761284;184;635853;-79
2023/03/18 10:41:30;;;;;;;4.53;2.77;;;;;;;;;;759322;183;635024;-78
2023/03/18 10:43:55;;;;;;;4.60;3.00;;;;;;;;;;758165;184;778795;-76
2023/03/18 10:46:21;;;;;;;7.40;2.83;;;;;;;;;;764962;184;684345;-77
2023/03/18 10:48:48;;;;;;;6.23;3.40;;;;;;;;;;760994;184;640783;-78
2023/03/18 10:51:24;;;;;;;4.23;2.83;;;;;;;;;;760161;184;631222;-78
2023/03/18 10:53:52;;;;;;;6.33;2.70;;;;;;;;;;759475;184;632519;-77
2023/03/18 10:56:18;;;;;;;4.73;3.00;;;;;;;;;;763362;184;648980;-78
2023/03/18 10:58:45;;;;;;;10.27;3.40;;;;;;;;;;759439;184;703659;-80
2023/03/18 11:01:10;;;;;;;4.80;2.90;;;;;;;;;;759008;184;637258;-79
2023/03/18 11:03:40;;;;;;;6.90;3.33;;;;;;;;;;760065;184;637263;-80
2023/03/18 11:06:06;;;;;;;8.40;3.20;;;;;;;;;;763128;182;625583;-79
2023/03/18 11:08:33;;;;;;;5.67;3.10;;;;;;;;;;760524;183;629464;-80
2023/03/18 11:11:00;;;;;;;8.30;3.40;;;;;;;;;;760563;183;659293;-77
2023/03/18 11:13:25;;;;;;;10.83;3.60;;;;;;;;;;765846;183;658558;-78
2023/03/18 11:15:51;;;;;;;6.23;3.10;;;;;;;;;;763647;184;643144;-79
2023/03/18 11:18:17;;;;;;;7.10;3.00;;;;;;;;;;761186;184;630910;-79
2023/03/18 11:20:43;;;;;;;7.10;4.10;;;;;;;;;;760676;184;630859;-79
2023/03/18 11:23:16;;;;;;;7.40;3.50;;;;;;;;;;758409;184;656986;-80
2023/03/18 11:25:42;;;;;;;6.20;3.07;;;;;;;;;;754365;184;636671;-78
2023/03/18 11:28:07;;;;;;;6.73;3.30;;;;;;;;;;757996;184;618995;-78
2023/03/18 11:30:35;;;;;;;7.40;2.73;;;;;;;;;;763356;183;628672;-79
2023/03/18 11:33:03;;;;;;;7.80;3.23;;;;;;;;;;763536;183;689823;-78
2023/03/18 11:35:31;;;;;;;4.80;3.13;;;;;;;;;;759930;181;625175;-78
2023/03/18 11:37:57;;;;;;;6.87;4.07;;;;;;;;;;757926;184;659307;-79
2023/03/18 11:40:24;;;;;;;4.80;2.87;;;;;;;;;;766111;184;634645;-78
2023/03/18 11:42:49;;;;;;;4.43;3.03;;;;;;;;;;765509;184;629257;-79
2023/03/18 11:45:21;;;;;;;5.50;2.83;;;;;;;;;;761574;183;633994;-79
2023/03/18 11:47:47;;;;;;;4.83;2.53;;;;;;;;;;760188;184;636454;-79
2023/03/18 11:50:13;;;;;;;4.50;3.00;;;;;;;;;;767922;184;639147;-80
2023/03/18 11:52:39;;;;;;;5.80;3.43;;;;;;;;;;762627;184;628467;-79
2023/03/18 11:55:10;;;;;;;4.30;2.77;;;;;;;;;;759943;181;633799;-79
2023/03/18 11:57:51;;;;;;;6.43;3.37;;;;;;;;;;762030;184;659996;-78
2023/03/18 12:00:32;;;;;;;4.70;2.93;;;;;;;;;;766060;181;627568;-78
2023/03/18 12:03:03;;;;;;;5.60;3.37;;;;;;;;;;768520;181;630502;-80
2023/03/18 12:05:29;;;;;;;4.83;2.97;;;;;;;;;;767896;182;628192;-79
2023/03/18 12:08:00;;;;;;;4.20;2.60;;;;;;;;;;761264;182;668493;-81
2023/03/18 12:10:31;;;;;;;5.40;2.87;;;;;;;;;;758183;184;643721;-79
2023/03/18 12:13:02;;;;;;;5.03;2.67;;;;;;;;;;763903;184;633835;-79
2023/03/18 12:15:33;;;;;;;5.70;3.30;;;;;;;;;;759167;184;617967;-79
2023/03/18 12:18:14;;;;;;;4.83;2.73;;;;;;;;;;758255;183;631717;-80
2023/03/18 12:20:41;;;;;;;6.03;3.00;;;;;;;;;;765566;181;623588;-78
2023/03/18 12:23:12;;;;;;;6.30;3.30;;;;;;;;;;761683;183;636681;-78
2023/03/18 12:25:38;;;;;;;4.30;3.10;;;;;;;;;;762533;183;645783;-78
2023/03/18 12:28:10;;;;;;;4.37;2.73;;;;;;;;;;762231;184;1000599;-82
2023/03/18 12:30:42;;;;;;;7.27;3.27;;;;;;;;;;758884;184;640828;-79
2023/03/18 12:33:09;;;;;;;4.90;2.77;;;;;;;;;;762874;184;650332;-79
2023/03/18 12:35:38;;;;;;;4.63;2.87;;;;;;;;;;760146;184;670687;-80
2023/03/18 12:38:04;;;;;;;4.60;2.43;;;;;;;;;;765736;184;648060;-79
2023/03/18 12:40:31;;;;;;;4.67;2.30;;;;;;;;;;760351;184;630337;-79
2023/03/18 12:42:59;;;;;;;5.77;2.60;;;;;;;;;;756174;184;632083;-78
2023/03/18 12:45:25;;;;;;;5.93;2.77;;;;;;;;;;757404;184;736272;-80
2023/03/18 12:47:57;;;;;;;4.43;2.57;;;;;;;;;;768766;183;665924;-77
2023/03/18 12:50:24;;;;;;;4.97;2.80;;;;;;;;;;762518;183;628794;-77
2023/03/18 12:52:53;;;;;;;5.30;3.30;;;;;;;;;;760701;182;650122;-79
2023/03/18 12:55:22;;;;;;;4.53;2.60;;;;;;;;;;759665;184;629028;-79
2023/03/18 12:57:48;;;;;;;3.30;2.23;;;;;;;;;;764514;184;625638;-78
2023/03/18 13:00:22;;;;;;;4.37;2.77;;;;;;;;;;759541;183;690917;-80
2023/03/18 13:03:03;;;;;;;4.73;3.00;;;;;;;;;;759546;184;664961;-78
2023/03/18 13:05:28;;;;;;;3.43;2.00;;;;;;;;;;759541;183;693007;-79
2023/03/18 13:08:09;;;;;;;5.23;2.63;;;;;;;;;;766029;184;614034;-80
2023/03/18 13:10:33;;;;;;;6.47;2.77;;;;;;;;;;764745;181;656896;-80
2023/03/18 13:12:59;;;;;;;3.60;2.17;;;;;;;;;;759758;183;639627;-78
2023/03/18 13:15:29;;;;;;;4.47;2.57;;;;;;;;;;760909;182;636039;-78
2023/03/18 13:17:57;;;;;;;5.10;2.70;;;;;;;;;;761095;184;667333;-82
2023/03/18 13:20:22;;;;;;;4.80;2.50;;;;;;;;;;767030;184;621165;-81
2023/03/18 13:22:50;;;;;;;6.03;3.03;;;;;;;;;;767400;184;633796;-79
2023/03/18 13:25:21;;;;;;;5.63;2.87;;;;;;;;;;765135;180;774475;-78
2023/03/18 13:27:49;;;;;;;4.00;2.20;;;;;;;;;;760877;184;691104;-80
2023/03/18 13:30:15;;;;;;;3.57;2.50;;;;;;;;;;762798;184;638749;-78
2023/03/18 13:32:42;;;;;;;3.93;2.33;;;;;;;;;;758719;183;641810;-78
2023/03/18 13:35:15;;;;;;;3.67;2.20;;;;;;;;;;760484;183;626807;-80
2023/03/18 13:37:43;;;;;;;4.17;2.50;;;;;;;;;;762261;183;627608;-78
2023/03/18 13:40:12;;;;;;;4.50;2.37;;;;;;;;;;763428;182;613574;-78
2023/03/18 13:42:37;;;;;;;4.33;2.40;;;;;;;;;;760419;183;629511;-78
2023/03/18 13:45:05;;;;;;;5.63;2.80;;;;;;;;;;760491;184;631620;-79
2023/03/18 13:47:31;;;;;;;4.13;2.57;;;;;;;;;;764406;182;626690;-78
2023/03/18 13:49:57;;;;;;;4.40;2.20;;;;;;;;;;765607;182;643312;-78
2023/03/18 13:52:23;;;;;;;4.90;2.80;;;;;;;;;;761549;184;673969;-79
2023/03/18 13:54:50;;;;;;;4.30;3.37;;;;;;;;;;759257;184;653779;-80
2023/03/18 13:57:16;;;;;;;5.73;2.70;;;;;;;;;;764970;184;707905;-79
2023/03/18 13:59:42;;;;;;;6.23;2.93;;;;;;;;;;761214;183;658622;-80
2023/03/18 14:02:14;;;;;;;6.00;3.30;;;;;;;;;;763602;184;656588;-78
2023/03/18 14:04:44;;;;;;;3.67;2.37;;;;;;;;;;765676;182;630320;-79
2023/03/18 14:07:11;;;;;;;5.73;2.37;;;;;;;;;;766545;180;680995;-78
2023/03/18 14:09:43;;;;;;;7.33;2.43;;;;;;;;;;761082;184;674257;-80
2023/03/18 14:12:17;;;;;;;4.20;2.27;;;;;;;;;;760837;183;663527;-78
2023/03/18 14:14:59;;;;;;;6.03;2.87;;;;;;;;;;760303;184;641556;-80